Time;durP1;ratioP1;P1;durP2;ratioP2;P2;SDS_P1;SDS_P2;PMS_P1;PMS_P2;Temp;Humidity;BMP_temperature;BMP_pressure;BME280_temperature;BME280_humidity;BME280_pressure;Samples;Min_cycle;Max_cycle;Signal;HPM_P1;HPM_P2
2023/06/01 00:02:21;;;;;;;8.75;3.75;;;11.60;99.90;;;;;;5070742;28;20094;-62
2023/06/01 00:04:49;;;;;;;7.85;4.15;;;11.60;99.90;;;;;;5070267;28;20040;-61
2023/06/01 00:07:16;;;;;;;13.35;4.53;;;11.60;99.90;;;;;;5068263;28;20090;-61
2023/06/01 00:09:42;;;;;;;13.50;4.28;;;11.60;99.90;;;;;;5053829;28;20028;-59
2023/06/01 00:12:08;;;;;;;10.40;4.75;;;11.60;99.90;;;;;;5071212;28;20502;-61
2023/06/01 00:14:34;;;;;;;11.88;4.18;;;11.60;99.90;;;;;;5072521;28;20040;-62
2023/06/01 00:16:59;;;;;;;12.35;4.60;;;11.60;99.90;;;;;;5071155;28;20116;-62
2023/06/01 00:19:26;;;;;;;11.25;4.15;;;11.50;99.90;;;;;;5071297;28;20036;-62
2023/06/01 00:21:57;;;;;;;11.85;4.05;;;11.50;99.90;;;;;;5069772;28;20029;-63
2023/06/01 00:24:23;;;;;;;10.55;3.97;;;11.50;99.90;;;;;;5069090;28;20043;-63
2023/06/01 00:26:49;;;;;;;10.55;4.28;;;11.50;99.90;;;;;;5071661;28;20032;-62
2023/06/01 00:29:14;;;;;;;10.77;4.53;;;11.40;99.90;;;;;;5072166;28;20039;-62
2023/06/01 00:31:40;;;;;;;11.27;4.55;;;11.50;99.90;;;;;;5070125;28;20047;-60
2023/06/01 00:34:07;;;;;;;13.35;4.57;;;11.40;99.90;;;;;;5071740;28;20067;-63
2023/06/01 00:36:33;;;;;;;10.30;4.47;;;11.40;99.90;;;;;;5071380;28;20402;-61
2023/06/01 00:39:02;;;;;;;9.18;4.30;;;11.40;99.90;;;;;;5071988;28;20043;-60
2023/06/01 00:41:28;;;;;;;10.68;4.38;;;11.30;99.90;;;;;;5053726;28;20070;-62
2023/06/01 00:43:54;;;;;;;13.07;4.10;;;11.30;99.90;;;;;;5070760;28;20364;-61
2023/06/01 00:46:20;;;;;;;8.77;4.30;;;11.30;99.90;;;;;;5071718;28;20047;-62
2023/06/01 00:48:46;;;;;;;12.15;4.55;;;11.20;99.90;;;;;;5070177;28;20028;-62
2023/06/01 00:51:14;;;;;;;11.88;4.25;;;11.20;99.90;;;;;;5070174;28;20518;-61
2023/06/01 00:53:40;;;;;;;9.00;4.20;;;11.20;99.90;;;;;;5071218;28;20495;-63
2023/06/01 00:56:06;;;;;;;13.02;4.22;;;11.20;99.90;;;;;;5068855;28;20033;-63
2023/06/01 00:58:32;;;;;;;11.10;4.90;;;11.20;99.90;;;;;;5071682;28;20040;-61
2023/06/01 01:00:58;;;;;;;13.15;5.32;;;11.20;99.90;;;;;;5069056;28;20044;-60
2023/06/01 01:03:25;;;;;;;13.60;4.82;;;11.20;99.90;;;;;;5066818;28;20032;-62
2023/06/01 01:06:01;;;;;;;13.13;4.53;;;11.10;99.90;;;;;;5101010;28;20041;-63
2023/06/01 01:08:48;;;;;;;11.05;5.07;;;11.10;99.90;;;;;;5072417;28;20029;-62
2023/06/01 01:11:23;;;;;;;14.30;5.10;;;11.10;99.90;;;;;;5068462;28;20063;-61
2023/06/01 01:14:05;;;;;;;16.20;5.53;;;11.10;99.90;;;;;;5069671;28;20855;-61
2023/06/01 01:16:45;;;;;;;14.45;4.93;;;11.10;99.90;;;;;;5101822;28;20671;-61
2023/06/01 01:19:25;;;;;;;9.60;5.00;;;11.10;99.90;;;;;;5070396;28;20032;-62
2023/06/01 01:22:07;;;;;;;8.32;4.82;;;11.20;99.90;;;;;;5065084;28;20036;-61
2023/06/01 01:25:12;;;;;;;13.00;4.82;;;11.20;99.90;;;;;;5069785;28;20068;-63
2023/06/01 01:28:10;;;;;;;12.80;5.03;;;11.20;99.90;;;;;;5068041;28;20515;-62
2023/06/01 01:30:39;;;;;;;12.57;5.50;;;11.20;99.90;;;;;;5069580;28;20440;-61
2023/06/01 01:33:06;;;;;;;8.88;4.60;;;11.20;99.90;;;;;;5068843;28;20076;-61
2023/06/01 01:35:33;;;;;;;12.70;5.20;;;11.20;99.90;;;;;;5070033;28;20111;-62
2023/06/01 01:37:58;;;;;;;13.02;5.50;;;11.20;99.90;;;;;;5069045;28;20055;-60
2023/06/01 01:40:24;;;;;;;12.02;5.57;;;11.20;99.90;;;;;;5071678;28;20040;-60
2023/06/01 01:42:51;;;;;;;10.20;4.57;;;11.30;99.90;;;;;;5069580;28;20076;-62
2023/06/01 01:45:17;;;;;;;9.60;4.53;;;11.30;99.90;;;;;;5069914;28;20376;-63
2023/06/01 01:48:00;;;;;;;10.00;4.53;;;11.30;99.90;;;;;;5069030;28;20526;-61
2023/06/01 01:50:29;;;;;;;11.93;4.53;;;11.20;99.90;;;;;;5070132;28;20053;-61
2023/06/01 01:52:56;;;;;;;10.85;5.25;;;11.20;99.90;;;;;;5067631;28;20116;-61
2023/06/01 01:55:24;;;;;;;11.38;5.30;;;11.20;99.90;;;;;;5052807;28;20048;-63
2023/06/01 01:57:56;;;;;;;11.07;4.72;;;11.20;99.90;;;;;;5070994;28;20441;-61
2023/06/01 02:00:22;;;;;;;12.53;5.10;;;11.20;99.90;;;;;;5072169;28;20119;-62
2023/06/01 02:02:47;;;;;;;17.30;5.55;;;11.10;99.90;;;;;;5067350;28;20302;-61
2023/06/01 02:05:13;;;;;;;12.38;4.90;;;11.10;99.90;;;;;;5051288;28;20468;-61
2023/06/01 02:07:39;;;;;;;13.57;4.95;;;11.10;99.90;;;;;;5068044;28;20506;-60
2023/06/01 02:10:05;;;;;;;16.65;4.93;;;11.10;99.90;;;;;;5070255;28;20407;-60
2023/06/01 02:12:30;;;;;;;10.68;5.50;;;11.10;99.90;;;;;;5070039;28;20029;-62
2023/06/01 02:14:56;;;;;;;10.70;4.78;;;11.10;99.90;;;;;;5066863;28;20402;-62
2023/06/01 02:17:24;;;;;;;11.15;4.78;;;11.10;99.90;;;;;;5069883;28;20079;-63
2023/06/01 02:19:50;;;;;;;9.18;4.53;;;11.10;99.90;;;;;;5070391;28;20086;-62
2023/06/01 02:22:16;;;;;;;11.48;4.57;;;11.10;99.90;;;;;;5052379;28;20040;-61
2023/06/01 02:24:42;;;;;;;11.35;4.80;;;11.10;99.90;;;;;;5069758;28;20749;-61
2023/06/01 02:27:07;;;;;;;12.05;4.63;;;11.10;99.90;;;;;;5070071;28;20040;-60
2023/06/01 02:29:33;;;;;;;10.70;4.47;;;11.10;99.90;;;;;;5068725;28;20041;-60
2023/06/01 02:31:59;;;;;;;11.68;4.05;;;11.10;99.90;;;;;;5070246;28;20040;-61
2023/06/01 02:34:25;;;;;;;8.77;4.20;;;11.10;99.90;;;;;;5068948;28;20368;-63
2023/06/01 02:36:50;;;;;;;11.27;4.75;;;11.00;99.90;;;;;;5069171;28;20036;-61
2023/06/01 02:39:17;;;;;;;10.05;3.90;;;11.00;99.90;;;;;;5069031;28;20444;-62
2023/06/01 02:41:42;;;;;;;9.60;4.20;;;11.00;99.90;;;;;;5068642;28;20395;-62
2023/06/01 02:44:08;;;;;;;10.45;3.85;;;11.00;99.90;;;;;;5066451;28;20040;-61
2023/06/01 02:46:34;;;;;;;9.23;4.22;;;11.00;99.90;;;;;;5069485;28;20032;-63
2023/06/01 02:49:00;;;;;;;8.60;4.00;;;11.00;99.90;;;;;;5069185;28;20518;-62
2023/06/01 02:51:25;;;;;;;10.98;4.55;;;11.00;99.90;;;;;;5075163;28;20128;-62
2023/06/01 02:53:51;;;;;;;7.85;4.30;;;11.00;99.90;;;;;;5076012;28;20422;-62
2023/06/01 02:56:17;;;;;;;10.48;4.20;;;11.00;99.90;;;;;;5075120;28;20504;-63
2023/06/01 02:58:42;;;;;;;9.20;3.63;;;11.00;99.90;;;;;;5074738;28;20037;-63
2023/06/01 03:01:11;;;;;;;9.95;4.38;;;11.00;99.90;;;;;;5071805;28;20037;-62
2023/06/01 03:03:38;;;;;;;11.98;4.95;;;11.00;99.90;;;;;;5076163;28;20056;-61
2023/06/01 03:06:05;;;;;;;11.77;4.40;;;11.00;99.90;;;;;;5076305;28;20445;-61
2023/06/01 03:08:31;;;;;;;12.25;4.20;;;11.00;99.90;;;;;;5074612;28;20483;-61
2023/06/01 03:10:57;;;;;;;9.73;4.30;;;11.00;99.90;;;;;;5075396;28;20047;-62
2023/06/01 03:13:23;;;;;;;12.57;4.50;;;11.00;99.90;;;;;;5076220;28;20021;-62
2023/06/01 03:15:50;;;;;;;11.75;4.80;;;11.00;99.90;;;;;;5075080;28;20129;-61
2023/06/01 03:18:16;;;;;;;9.45;4.28;;;11.00;99.90;;;;;;5075222;28;20529;-62
2023/06/01 03:20:42;;;;;;;12.52;4.80;;;11.00;99.90;;;;;;5069096;28;20056;-61
2023/06/01 03:23:07;;;;;;;11.93;4.43;;;11.00;99.90;;;;;;5074576;28;20048;-61
2023/06/01 03:25:33;;;;;;;10.48;4.55;;;11.00;99.90;;;;;;5076051;28;20052;-62
2023/06/01 03:27:59;;;;;;;10.95;4.50;;;11.00;99.90;;;;;;5073343;28;20036;-61
2023/06/01 03:30:25;;;;;;;13.32;4.40;;;11.00;99.90;;;;;;5071682;28;20480;-62
2023/06/01 03:32:51;;;;;;;9.07;4.03;;;11.00;99.90;;;;;;5073022;28;20044;-62
2023/06/01 03:35:17;;;;;;;9.63;3.88;;;11.00;99.90;;;;;;5074862;28;20044;-61
2023/06/01 03:37:44;;;;;;;10.75;4.38;;;11.00;99.90;;;;;;5075671;28;20123;-63
2023/06/01 03:40:10;;;;;;;9.05;4.53;;;11.10;99.90;;;;;;5073992;28;20028;-62
2023/06/01 03:42:41;;;;;;;9.85;4.47;;;11.10;99.90;;;;;;5074636;28;20040;-62
2023/06/01 03:45:08;;;;;;;10.60;4.07;;;11.00;99.90;;;;;;5074510;28;20079;-62
2023/06/01 03:47:34;;;;;;;10.15;3.80;;;11.00;99.90;;;;;;5074628;28;20040;-63
2023/06/01 03:50:03;;;;;;;8.68;4.13;;;11.00;99.90;;;;;;5074436;28;20139;-62
2023/06/01 03:52:29;;;;;;;11.18;4.00;;;11.00;99.90;;;;;;5074883;28;20392;-63
2023/06/01 03:54:58;;;;;;;8.00;4.05;;;10.90;99.90;;;;;;5074985;28;20036;-60
2023/06/01 03:57:24;;;;;;;7.30;3.60;;;11.00;99.90;;;;;;5075829;28;20044;-61
2023/06/01 03:59:51;;;;;;;13.35;4.20;;;11.00;99.90;;;;;;5073606;28;20109;-61
2023/06/01 04:02:18;;;;;;;7.38;3.40;;;11.00;99.90;;;;;;5053696;28;20057;-60
2023/06/01 04:04:46;;;;;;;9.40;3.70;;;11.00;99.90;;;;;;5069275;28;20459;-61
2023/06/01 04:07:21;;;;;;;9.05;4.10;;;11.00;99.90;;;;;;5070990;28;20037;-62
2023/06/01 04:09:47;;;;;;;9.60;3.45;;;11.10;99.90;;;;;;5071167;28;20044;-62
2023/06/01 04:12:14;;;;;;;7.03;3.35;;;11.10;99.90;;;;;;5070910;28;20033;-62
2023/06/01 04:14:40;;;;;;;10.52;3.50;;;11.10;99.90;;;;;;5071236;28;20464;-62
2023/06/01 04:17:06;;;;;;;6.53;2.88;;;11.10;99.90;;;;;;5071996;28;20037;-61
2023/06/01 04:19:35;;;;;;;6.75;3.15;;;11.10;99.90;;;;;;5071568;28;20468;-61
2023/06/01 04:22:00;;;;;;;8.80;3.03;;;11.20;99.90;;;;;;5071118;28;20083;-62
2023/06/01 04:24:26;;;;;;;7.53;2.92;;;11.20;99.90;;;;;;5069079;28;20541;-64
2023/06/01 04:26:52;;;;;;;8.07;3.15;;;11.20;99.90;;;;;;5069291;28;20040;-61
2023/06/01 04:29:21;;;;;;;10.13;3.20;;;11.20;99.90;;;;;;5070666;28;20039;-62
2023/06/01 04:31:46;;;;;;;6.68;3.17;;;11.20;99.90;;;;;;5070228;28;20495;-62
2023/06/01 04:34:12;;;;;;;7.65;3.25;;;11.20;99.90;;;;;;5069075;28;20097;-61
2023/06/01 04:36:39;;;;;;;8.32;3.20;;;11.20;99.90;;;;;;5066087;28;20116;-62
2023/06/01 04:39:06;;;;;;;11.77;3.92;;;11.20;99.90;;;;;;5068368;28;20040;-62
2023/06/01 04:41:33;;;;;;;12.82;4.20;;;11.20;99.90;;;;;;5071598;28;20513;-62
2023/06/01 04:43:58;;;;;;;7.70;3.33;;;11.20;99.90;;;;;;5067546;28;20036;-62
2023/06/01 04:46:25;;;;;;;14.73;3.80;;;11.20;99.90;;;;;;5069746;28;21140;-62
2023/06/01 04:48:52;;;;;;;11.65;3.83;;;11.20;99.90;;;;;;5070216;28;20089;-62
2023/06/01 04:51:21;;;;;;;7.10;3.50;;;11.30;99.90;;;;;;5070731;28;20067;-62
2023/06/01 04:53:51;;;;;;;7.10;3.28;;;11.30;99.90;;;;;;5087561;28;20519;-60
2023/06/01 04:56:26;;;;;;;5.85;3.22;;;11.30;99.90;;;;;;5070604;28;20105;-63
2023/06/01 04:58:54;;;;;;;8.90;3.85;;;11.30;99.90;;;;;;5068561;28;20044;-61
2023/06/01 05:01:29;;;;;;;10.27;3.90;;;11.30;99.90;;;;;;5070268;28;20050;-59
2023/06/01 05:03:55;;;;;;;7.78;3.40;;;11.30;99.90;;;;;;5069158;28;20036;-62
2023/06/01 05:06:21;;;;;;;7.68;3.50;;;11.30;99.90;;;;;;5071433;28;20047;-60
2023/06/01 05:08:48;;;;;;;7.85;3.58;;;11.30;99.90;;;;;;5069734;28;20048;-60
2023/06/01 05:11:13;;;;;;;10.15;3.90;;;11.30;99.90;;;;;;5052909;28;20044;-63
2023/06/01 05:13:40;;;;;;;9.25;3.28;;;11.30;99.90;;;;;;5069567;28;20036;-63
2023/06/01 05:16:07;;;;;;;10.25;3.55;;;11.30;99.90;;;;;;5071029;28;20487;-62
2023/06/01 05:18:33;;;;;;;7.03;3.53;;;11.40;99.90;;;;;;5068766;28;20046;-60
2023/06/01 05:21:00;;;;;;;5.30;3.30;;;11.30;99.90;;;;;;5067630;28;20129;-64
2023/06/01 05:23:26;;;;;;;7.95;3.70;;;11.40;99.90;;;;;;5069768;28;20043;-62
2023/06/01 05:25:54;;;;;;;10.02;4.07;;;11.30;99.90;;;;;;5072067;28;20039;-62
2023/06/01 05:28:20;;;;;;;12.48;3.60;;;11.30;99.90;;;;;;5070789;28;20049;-61
2023/06/01 05:30:46;;;;;;;9.40;3.40;;;11.40;99.90;;;;;;5068948;28;20032;-61
2023/06/01 05:33:12;;;;;;;6.80;3.65;;;11.40;99.90;;;;;;5069699;28;20443;-62
2023/06/01 05:35:38;;;;;;;7.95;3.78;;;11.30;99.90;;;;;;5070619;28;20050;-60
2023/06/01 05:38:04;;;;;;;9.50;3.67;;;11.30;99.90;;;;;;5069357;28;20050;-63
2023/06/01 05:40:29;;;;;;;8.45;4.25;;;11.30;99.90;;;;;;5068226;28;20055;-62
2023/06/01 05:42:55;;;;;;;12.68;4.47;;;11.30;99.90;;;;;;5063116;28;20103;-61
2023/06/01 05:45:21;;;;;;;6.57;3.50;;;11.30;99.90;;;;;;5068598;28;20036;-62
2023/06/01 05:47:47;;;;;;;8.38;3.92;;;11.30;99.90;;;;;;5068765;28;20069;-62
2023/06/01 05:50:12;;;;;;;7.82;3.85;;;11.40;99.90;;;;;;5067154;28;20116;-61
2023/06/01 05:52:39;;;;;;;11.55;3.97;;;11.40;99.90;;;;;;5068362;28;20083;-61
2023/06/01 05:55:05;;;;;;;8.65;3.28;;;11.40;99.90;;;;;;5065979;28;20544;-62
2023/06/01 05:57:31;;;;;;;9.93;3.72;;;11.50;99.90;;;;;;5064282;28;20044;-63
2023/06/01 05:59:56;;;;;;;9.05;3.50;;;11.50;99.90;;;;;;5058983;28;20039;-63
2023/06/01 06:02:22;;;;;;;7.55;3.58;;;11.60;99.90;;;;;;5058180;28;20585;-62
2023/06/01 06:04:48;;;;;;;8.20;3.50;;;11.60;99.90;;;;;;5070176;28;20128;-61
2023/06/01 06:07:13;;;;;;;8.90;3.35;;;11.60;99.90;;;;;;5067662;28;20417;-62
2023/06/01 06:09:40;;;;;;;7.88;3.75;;;11.70;99.90;;;;;;5063595;28;20090;-64
2023/06/01 06:12:06;;;;;;;10.57;3.83;;;11.60;99.90;;;;;;5056065;28;20045;-62
2023/06/01 06:14:32;;;;;;;10.50;3.60;;;11.60;99.90;;;;;;5062610;28;20478;-61
2023/06/01 06:16:58;;;;;;;8.70;3.45;;;11.70;99.90;;;;;;5067375;28;20065;-62
2023/06/01 06:19:23;;;;;;;8.15;3.47;;;11.70;99.90;;;;;;5068688;28;20075;-61
2023/06/01 06:21:49;;;;;;;8.05;3.78;;;11.70;99.90;;;;;;5068605;28;20055;-61
2023/06/01 06:24:15;;;;;;;11.95;3.80;;;11.70;99.90;;;;;;5050956;28;20059;-62
2023/06/01 06:26:41;;;;;;;5.75;3.35;;;11.80;99.90;;;;;;5048904;28;20135;-60
2023/06/01 06:29:06;;;;;;;12.48;3.72;;;11.80;99.90;;;;;;5066826;28;20037;-60
2023/06/01 06:31:32;;;;;;;9.75;3.60;;;11.80;99.90;;;;;;5060488;28;22093;-61
2023/06/01 06:33:57;;;;;;;10.25;4.15;;;11.80;99.90;;;;;;5050602;28;20091;-61
2023/06/01 06:36:23;;;;;;;8.23;3.33;;;11.90;99.90;;;;;;5069383;28;20135;-61
2023/06/01 06:38:49;;;;;;;7.60;3.28;;;11.90;99.90;;;;;;5062677;28;20518;-60
2023/06/01 06:41:15;;;;;;;12.13;3.88;;;11.90;99.90;;;;;;5070002;28;20040;-61
2023/06/01 06:43:40;;;;;;;8.27;3.80;;;11.90;99.90;;;;;;5068698;28;20032;-63
2023/06/01 06:46:06;;;;;;;8.75;3.75;;;12.00;99.90;;;;;;5070053;28;20123;-64
2023/06/01 06:48:32;;;;;;;9.60;4.30;;;12.10;99.90;;;;;;5068759;28;20044;-61
2023/06/01 06:50:58;;;;;;;8.63;3.63;;;12.10;99.90;;;;;;5051665;28;20119;-61
2023/06/01 06:53:23;;;;;;;8.82;3.63;;;12.20;99.90;;;;;;5068337;28;20044;-62
2023/06/01 06:55:49;;;;;;;6.93;3.40;;;12.20;99.90;;;;;;5068336;28;20113;-62
2023/06/01 06:58:14;;;;;;;7.45;3.08;;;12.20;99.90;;;;;;5069720;28;20044;-61
2023/06/01 07:00:40;;;;;;;6.43;3.60;;;12.20;99.90;;;;;;5068724;28;20052;-62
2023/06/01 07:03:06;;;;;;;9.68;3.30;;;12.30;99.90;;;;;;5069709;28;20032;-62
2023/06/01 07:05:32;;;;;;;8.77;3.30;;;12.30;99.90;;;;;;5069874;28;20060;-61
2023/06/01 07:07:58;;;;;;;8.15;3.53;;;12.40;99.90;;;;;;5068492;28;20044;-62
2023/06/01 07:10:25;;;;;;;9.65;4.45;;;12.50;99.90;;;;;;5069455;28;20041;-62
2023/06/01 07:12:51;;;;;;;8.80;3.55;;;12.50;99.90;;;;;;5068672;28;20037;-61
2023/06/01 07:15:16;;;;;;;7.47;3.10;;;12.50;99.90;;;;;;5068435;28;20051;-62
2023/06/01 07:17:42;;;;;;;8.40;3.85;;;12.50;99.90;;;;;;5068519;28;20044;-62
2023/06/01 07:20:11;;;;;;;7.20;3.13;;;12.50;99.90;;;;;;5068414;28;20040;-63
2023/06/01 07:22:38;;;;;;;8.27;3.20;;;12.50;99.90;;;;;;5069641;28;20044;-62
2023/06/01 07:25:05;;;;;;;5.32;3.15;;;12.50;99.90;;;;;;5069716;28;20080;-62
2023/06/01 07:27:31;;;;;;;7.28;3.95;;;12.50;99.90;;;;;;5069245;28;20041;-62
2023/06/01 07:29:57;;;;;;;7.70;3.10;;;12.60;99.90;;;;;;5068411;28;20055;-62
2023/06/01 07:32:24;;;;;;;7.32;3.40;;;12.60;99.90;;;;;;5068248;28;20036;-61
2023/06/01 07:34:50;;;;;;;6.78;3.17;;;12.60;99.90;;;;;;5068772;28;20433;-61
2023/06/01 07:37:16;;;;;;;8.95;3.80;;;12.60;99.90;;;;;;5073059;28;20040;-62
2023/06/01 07:39:42;;;;;;;7.72;3.67;;;12.70;99.90;;;;;;5071768;28;20098;-63
2023/06/01 07:42:07;;;;;;;10.60;3.75;;;12.70;99.90;;;;;;5073522;28;20391;-61
2023/06/01 07:44:33;;;;;;;9.70;3.78;;;12.80;99.90;;;;;;5073079;28;20458;-62
2023/06/01 07:46:59;;;;;;;7.05;3.20;;;12.80;99.90;;;;;;5071865;28;20056;-61
2023/06/01 07:49:25;;;;;;;8.00;3.60;;;12.80;99.90;;;;;;5073001;28;20517;-62
2023/06/01 07:51:52;;;;;;;5.18;2.78;;;12.80;99.90;;;;;;5071451;28;20071;-60
2023/06/01 07:54:18;;;;;;;8.70;3.28;;;12.90;99.90;;;;;;5072863;28;20048;-61
2023/06/01 07:56:44;;;;;;;8.32;3.10;;;12.90;99.90;;;;;;5054765;28;20051;-61
2023/06/01 07:59:09;;;;;;;10.50;3.10;;;12.90;99.90;;;;;;5072624;28;20482;-62
2023/06/01 08:01:36;;;;;;;5.32;2.83;;;12.90;99.90;;;;;;5073278;28;20508;-60
2023/06/01 08:04:01;;;;;;;8.75;3.25;;;12.90;99.90;;;;;;5072656;28;20518;-61
2023/06/01 08:06:28;;;;;;;6.90;3.15;;;13.00;99.90;;;;;;5072676;28;20079;-62
2023/06/01 08:08:54;;;;;;;8.75;3.65;;;13.00;99.90;;;;;;5072900;28;20040;-61
2023/06/01 08:11:21;;;;;;;7.22;3.28;;;13.00;99.90;;;;;;5071504;28;20036;-63
2023/06/01 08:13:47;;;;;;;7.40;3.00;;;13.10;99.90;;;;;;5071155;28;20445;-63
2023/06/01 08:16:13;;;;;;;11.63;3.33;;;13.10;99.90;;;;;;5070959;28;20123;-62
2023/06/01 08:18:39;;;;;;;6.40;2.70;;;13.20;99.90;;;;;;5072902;28;20119;-60
2023/06/01 08:21:05;;;;;;;5.82;3.58;;;13.20;99.90;;;;;;5071377;28;20055;-61
2023/06/01 08:23:31;;;;;;;6.75;3.00;;;13.20;99.90;;;;;;5071723;28;20044;-59
2023/06/01 08:25:57;;;;;;;6.07;2.63;;;13.20;99.90;;;;;;5072464;28;20399;-60
2023/06/01 08:28:22;;;;;;;9.40;3.05;;;13.30;99.90;;;;;;5072129;28;20029;-59
2023/06/01 08:30:48;;;;;;;7.68;2.75;;;13.30;99.90;;;;;;5072375;28;20039;-63
2023/06/01 08:33:15;;;;;;;7.18;3.30;;;13.40;99.90;;;;;;5072313;28;20035;-59
2023/06/01 08:35:40;;;;;;;6.90;3.00;;;13.40;99.90;;;;;;5054185;28;20133;-60
2023/06/01 08:38:06;;;;;;;9.15;2.75;;;13.50;99.90;;;;;;5070730;28;20041;-61
2023/06/01 08:40:32;;;;;;;6.25;2.40;;;13.50;99.90;;;;;;5070775;28;20040;-62
2023/06/01 08:43:19;;;;;;;6.38;2.85;;;13.50;99.90;;;;;;5070702;28;20058;-60
2023/06/01 08:45:47;;;;;;;7.05;3.13;;;13.40;99.90;;;;;;5070210;28;20091;-60
2023/06/01 08:48:17;;;;;;;9.05;3.17;;;13.50;99.90;;;;;;5072124;28;20529;-62
2023/06/01 08:50:49;;;;;;;9.57;3.20;;;13.50;99.90;;;;;;5072209;28;20519;-60
2023/06/01 08:53:21;;;;;;;6.75;2.92;;;13.50;99.90;;;;;;5070275;28;20041;-63
2023/06/01 08:55:52;;;;;;;5.07;2.77;;;13.50;99.90;;;;;;5070501;28;20048;-64
2023/06/01 08:58:18;;;;;;;9.82;3.58;;;13.50;99.90;;;;;;5071898;28;20452;-61
2023/06/01 09:00:48;;;;;;;11.23;3.67;;;13.60;99.90;;;;;;5070226;28;20038;-62
2023/06/01 09:03:13;;;;;;;6.72;3.30;;;13.60;99.90;;;;;;5071739;28;20068;-62
2023/06/01 09:05:39;;;;;;;9.68;3.55;;;13.60;99.90;;;;;;5070150;28;20079;-62
2023/06/01 09:08:05;;;;;;;9.88;3.63;;;13.70;99.90;;;;;;5070096;28;20047;-61
2023/06/01 09:10:31;;;;;;;6.38;3.28;;;13.90;99.90;;;;;;5070123;28;20040;-60
2023/06/01 09:12:57;;;;;;;7.47;3.17;;;14.00;99.90;;;;;;5070022;28;20048;-62
2023/06/01 09:15:25;;;;;;;6.50;2.92;;;13.90;99.90;;;;;;5071067;28;20123;-60
2023/06/01 09:17:52;;;;;;;6.57;2.60;;;14.00;99.90;;;;;;5070259;28;20040;-61
2023/06/01 09:20:26;;;;;;;3.75;2.60;;;14.00;99.90;;;;;;5071449;28;20060;-61
2023/06/01 09:22:53;;;;;;;3.55;2.03;;;14.00;99.90;;;;;;5071148;28;20119;-61
2023/06/01 09:25:32;;;;;;;4.43;2.33;;;14.00;99.90;;;;;;5070969;28;20044;-61
2023/06/01 09:28:00;;;;;;;6.22;2.20;;;13.90;99.90;;;;;;5071381;28;20033;-63
2023/06/01 09:30:45;;;;;;;2.53;1.70;;;13.90;99.90;;;;;;5069750;28;20418;-60
2023/06/01 09:33:13;;;;;;;3.97;2.10;;;13.90;99.90;;;;;;5070059;28;20028;-61
2023/06/01 09:35:38;;;;;;;3.22;1.42;;;13.90;99.90;;;;;;5071094;28;20033;-62
2023/06/01 09:38:06;;;;;;;4.68;1.65;;;13.90;99.90;;;;;;5070016;28;20119;-62
2023/06/01 09:40:33;;;;;;;1.70;1.50;;;13.90;99.90;;;;;;5071143;28;20025;-60
2023/06/01 09:42:59;;;;;;;4.47;1.63;;;13.90;99.90;;;;;;5069920;28;20044;-62
2023/06/01 09:45:24;;;;;;;2.50;1.50;;;14.00;99.90;;;;;;5070633;28;20052;-61
2023/06/01 09:47:52;;;;;;;2.13;1.40;;;13.90;99.90;;;;;;5069515;28;20039;-62
2023/06/01 09:50:34;;;;;;;2.97;1.75;;;13.90;99.90;;;;;;5070448;28;20063;-62
2023/06/01 09:53:00;;;;;;;3.33;1.83;;;13.90;99.90;;;;;;5069425;28;20669;-62
2023/06/01 09:55:26;;;;;;;4.32;1.85;;;13.80;99.90;;;;;;5069256;28;20093;-61
2023/06/01 09:57:51;;;;;;;3.28;1.70;;;13.80;99.90;;;;;;5069714;28;20093;-62
2023/06/01 10:00:24;;;;;;;2.83;1.50;;;13.80;99.90;;;;;;5069106;28;20435;-60
2023/06/01 10:02:52;;;;;;;1.77;1.20;;;13.80;99.90;;;;;;5070575;28;20695;-61
2023/06/01 10:05:17;;;;;;;4.75;2.42;;;13.70;99.90;;;;;;5068900;28;20094;-60
2023/06/01 10:07:44;;;;;;;3.13;1.70;;;13.70;99.90;;;;;;5069088;28;20123;-61
2023/06/01 10:10:14;;;;;;;3.95;2.10;;;13.70;99.90;;;;;;5070719;28;20040;-62
2023/06/01 10:12:40;;;;;;;3.40;1.85;;;13.50;99.90;;;;;;5070664;28;20036;-61
2023/06/01 10:15:07;;;;;;;7.30;2.80;;;13.40;99.90;;;;;;5070483;28;20040;-63
2023/06/01 10:17:36;;;;;;;6.22;2.53;;;13.30;99.90;;;;;;5069199;28;20048;-61
2023/06/01 10:20:02;;;;;;;4.95;2.67;;;13.30;99.90;;;;;;5068966;28;20052;-63
2023/06/01 10:22:29;;;;;;;7.65;2.67;;;13.20;99.90;;;;;;5070131;28;20127;-63
2023/06/01 10:25:00;;;;;;;5.68;2.90;;;13.20;99.90;;;;;;5070397;28;20479;-61
2023/06/01 10:27:44;;;;;;;7.78;2.75;;;13.20;99.90;;;;;;5070041;28;20041;-61
2023/06/01 10:30:10;;;;;;;10.27;3.08;;;13.30;99.90;;;;;;5068923;28;20064;-62
2023/06/01 10:32:48;;;;;;;6.85;2.67;;;13.40;99.90;;;;;;5070126;28;20032;-63
2023/06/01 10:35:26;;;;;;;6.00;3.15;;;13.40;99.90;;;;;;5070081;28;20048;-61
2023/06/01 10:38:09;;;;;;;7.68;3.58;;;13.50;99.90;;;;;;5070026;28;20119;-63
2023/06/01 10:40:39;;;;;;;8.65;3.22;;;13.50;99.90;;;;;;5069764;28;20044;-60
2023/06/01 10:43:06;;;;;;;6.47;3.38;;;13.40;99.90;;;;;;5068846;28;20044;-60
2023/06/01 10:45:41;;;;;;;6.60;2.80;;;13.40;99.90;;;;;;5068441;28;20109;-61
2023/06/01 10:48:10;;;;;;;5.88;3.03;;;13.50;99.90;;;;;;5068680;28;20045;-60
2023/06/01 10:50:36;;;;;;;5.03;2.83;;;13.50;99.90;;;;;;5069820;28;20091;-62
2023/06/01 10:53:26;;;;;;;5.10;2.78;;;13.60;99.90;;;;;;5068760;28;20126;-62
2023/06/01 10:56:23;;;;;;;6.88;2.83;;;13.70;99.90;;;;;;5070141;28;20470;-60
2023/06/01 10:59:07;;;;;;;6.15;3.05;;;13.80;99.90;;;;;;5069788;28;20487;-62
2023/06/01 11:01:41;;;;;;;8.43;2.80;;;13.80;99.90;;;;;;5069771;28;20044;-59
2023/06/01 11:04:07;;;;;;;5.25;3.05;;;13.90;99.90;;;;;;5069677;28;20068;-61
2023/06/01 11:06:39;;;;;;;6.22;3.33;;;13.90;99.90;;;;;;5069715;28;20039;-62
2023/06/01 11:09:10;;;;;;;8.93;3.58;;;13.90;99.90;;;;;;5070761;28;20035;-61
2023/06/01 11:11:48;;;;;;;11.13;3.38;;;13.90;99.90;;;;;;5072294;28;20048;-62
2023/06/01 11:14:15;;;;;;;15.05;3.72;;;13.90;99.90;;;;;;5072628;28;20036;-61
2023/06/01 11:16:41;;;;;;;8.68;3.10;;;13.80;99.90;;;;;;5072406;28;20424;-62
2023/06/01 11:19:09;;;;;;;8.05;3.05;;;13.80;99.90;;;;;;5072192;28;20178;-62
2023/06/01 11:21:43;;;;;;;7.60;2.50;;;13.80;99.90;;;;;;5073697;28;20484;-59
2023/06/01 11:24:13;;;;;;;10.02;2.63;;;14.00;99.90;;;;;;5072781;28;20052;-63
2023/06/01 11:26:41;;;;;;;7.63;2.67;;;14.10;99.90;;;;;;5073221;28;20040;-60
2023/06/01 11:29:18;;;;;;;5.55;2.72;;;14.10;99.90;;;;;;5072027;28;20463;-63
2023/06/01 11:31:47;;;;;;;7.10;2.50;;;14.20;99.90;;;;;;5073562;28;20032;-60
2023/06/01 11:34:15;;;;;;;5.40;2.58;;;14.30;99.90;;;;;;5073693;28;20383;-63
2023/06/01 11:36:49;;;;;;;6.22;2.13;;;14.40;99.90;;;;;;5073238;28;20035;-62
2023/06/01 11:39:23;;;;;;;5.10;2.10;;;14.40;99.90;;;;;;5071866;28;20072;-61
2023/06/01 11:41:51;;;;;;;11.57;2.50;;;14.50;99.90;;;;;;5072106;28;20041;-60
2023/06/01 11:44:16;;;;;;;10.30;2.67;;;14.50;99.90;;;;;;5073108;28;20400;-62
2023/06/01 11:46:53;;;;;;;10.07;2.75;;;14.60;99.90;;;;;;5071984;28;20032;-62
2023/06/01 11:49:19;;;;;;;6.13;2.60;;;14.50;99.90;;;;;;5071814;28;20056;-64
2023/06/01 11:51:45;;;;;;;9.10;2.63;;;14.50;99.90;;;;;;5073113;28;20033;-63
2023/06/01 11:54:11;;;;;;;8.75;2.50;;;14.50;99.90;;;;;;5072916;28;20028;-61
2023/06/01 11:56:39;;;;;;;8.68;3.03;;;14.50;99.90;;;;;;5072944;28;20040;-61
2023/06/01 11:59:09;;;;;;;8.93;2.85;;;14.60;99.90;;;;;;5055122;28;20486;-59
2023/06/01 12:01:39;;;;;;;9.70;2.80;;;14.60;99.90;;;;;;5071964;28;20047;-62
2023/06/01 12:04:05;;;;;;;10.40;2.90;;;14.70;99.90;;;;;;5070896;28;20040;-63
2023/06/01 12:06:31;;;;;;;11.95;3.30;;;14.80;99.90;;;;;;5071870;28;20543;-61
2023/06/01 12:08:57;;;;;;;7.57;2.40;;;14.90;99.90;;;;;;5071580;28;20115;-59
2023/06/01 12:11:27;;;;;;;7.10;2.95;;;15.00;99.90;;;;;;5071609;28;20056;-61
2023/06/01 12:13:55;;;;;;;5.70;2.47;;;15.00;99.90;;;;;;5072541;28;20043;-60
2023/06/01 12:16:22;;;;;;;7.80;3.17;;;15.00;99.90;;;;;;5072738;28;20032;-62
2023/06/01 12:18:48;;;;;;;9.18;2.83;;;15.00;99.90;;;;;;5054288;28;20051;-61
2023/06/01 12:21:16;;;;;;;8.05;2.50;;;15.10;99.90;;;;;;5071760;28;20028;-62
2023/06/01 12:23:48;;;;;;;7.63;2.45;;;15.20;99.90;;;;;;5071687;28;20044;-62
2023/06/01 12:26:14;;;;;;;9.43;3.10;;;15.20;99.90;;;;;;5072891;28;20895;-60
2023/06/01 12:28:53;;;;;;;7.57;2.78;;;15.20;99.90;;;;;;5071301;28;20041;-62
2023/06/01 12:31:19;;;;;;;9.52;2.90;;;15.30;99.90;;;;;;5068853;28;20404;-62
2023/06/01 12:33:45;;;;;;;8.50;2.80;;;15.30;99.90;;;;;;5072649;28;20033;-61
2023/06/01 12:36:28;;;;;;;7.15;2.40;;;15.30;99.90;;;;;;5071134;28;20719;-63
2023/06/01 12:38:54;;;;;;;8.23;3.15;;;15.30;99.90;;;;;;5068414;28;20075;-62
2023/06/01 12:41:21;;;;;;;6.28;2.75;;;15.30;99.90;;;;;;5072345;28;20436;-61
2023/06/01 12:43:49;;;;;;;9.00;2.90;;;15.40;99.90;;;;;;5070815;28;20036;-61
2023/06/01 12:46:27;;;;;;;8.45;2.67;;;15.50;99.90;;;;;;5072100;28;20093;-64
2023/06/01 12:49:10;;;;;;;6.30;2.85;;;15.50;99.90;;;;;;5070529;28;20056;-61